sensor_id;sensor_type;location;lat;lon;timestamp;temperature;humidity
47090;DHT22;32840;52.516;13.294;2023-07-31T00:00:23;17.70;99.90
47090;DHT22;32840;52.516;13.294;2023-07-31T00:03:08;17.60;99.90
47090;DHT22;32840;52.516;13.294;2023-07-31T00:05:52;17.60;99.90
47090;DHT22;32840;52.516;13.294;2023-07-31T00:08:39;17.60;99.90
47090;DHT22;32840;52.516;13.294;2023-07-31T00:11:24;17.60;99.90
47090;DHT22;32840;52.516;13.294;2023-07-31T00:14:09;17.60;99.90
47090;DHT22;32840;52.516;13.294;2023-07-31T00:16:54;17.40;99.90
47090;DHT22;32840;52.516;13.294;2023-07-31T00:19:39;17.50;99.90
47090;DHT22;32840;52.516;13.294;2023-07-31T00:22:24;17.50;99.90
47090;DHT22;32840;52.516;13.294;2023-07-31T00:25:08;17.50;99.90
47090;DHT22;32840;52.516;13.294;2023-07-31T00:27:53;17.50;99.90
47090;DHT22;32840;52.516;13.294;2023-07-31T00:30:39;17.50;99.90
47090;DHT22;32840;52.516;13.294;2023-07-31T00:33:25;17.50;99.90
47090;DHT22;32840;52.516;13.294;2023-07-31T00:36:10;17.50;99.90
47090;DHT22;32840;52.516;13.294;2023-07-31T00:38:55;17.60;99.90
47090;DHT22;32840;52.516;13.294;2023-07-31T00:41:40;17.60;99.90
47090;DHT22;32840;52.516;13.294;2023-07-31T00:44:24;17.50;99.90
47090;DHT22;32840;52.516;13.294;2023-07-31T00:47:09;17.60;99.90
47090;DHT22;32840;52.516;13.294;2023-07-31T00:49:54;17.50;99.90
47090;DHT22;32840;52.516;13.294;2023-07-31T00:52:39;17.60;99.90
47090;DHT22;32840;52.516;13.294;2023-07-31T00:55:25;17.60;99.90
47090;DHT22;32840;52.516;13.294;2023-07-31T00:58:09;17.60;99.90
47090;DHT22;32840;52.516;13.294;2023-07-31T01:00:54;17.60;99.90
47090;DHT22;32840;52.516;13.294;2023-07-31T01:03:39;17.70;99.90
47090;DHT22;32840;52.516;13.294;2023-07-31T01:06:38;17.80;99.90
47090;DHT22;32840;52.516;13.294;2023-07-31T01:09:37;17.80;99.90
47090;DHT22;32840;52.516;13.294;2023-07-31T01:12:23;17.70;99.90
47090;DHT22;32840;52.516;13.294;2023-07-31T01:15:09;17.70;99.90
47090;DHT22;32840;52.516;13.294;2023-07-31T01:17:59;17.60;99.90
47090;DHT22;32840;52.516;13.294;2023-07-31T01:20:54;17.60;99.90
47090;DHT22;32840;52.516;13.294;2023-07-31T01:27:14;17.80;99.90
47090;DHT22;32840;52.516;13.294;2023-07-31T01:30:13;17.80;99.90
47090;DHT22;32840;52.516;13.294;2023-07-31T01:33:02;17.80;99.90
47090;DHT22;32840;52.516;13.294;2023-07-31T01:35:51;17.80;99.90
47090;DHT22;32840;52.516;13.294;2023-07-31T01:38:37;17.80;99.90
47090;DHT22;32840;52.516;13.294;2023-07-31T01:41:21;17.90;99.90
47090;DHT22;32840;52.516;13.294;2023-07-31T01:44:06;17.90;99.90
47090;DHT22;32840;52.516;13.294;2023-07-31T01:46:51;18.00;99.90
47090;DHT22;32840;52.516;13.294;2023-07-31T01:49:36;18.00;99.90
47090;DHT22;32840;52.516;13.294;2023-07-31T01:52:21;18.20;99.90
47090;DHT22;32840;52.516;13.294;2023-07-31T01:55:06;18.10;99.90
47090;DHT22;32840;52.516;13.294;2023-07-31T01:57:51;18.20;99.90
47090;DHT22;32840;52.516;13.294;2023-07-31T02:00:36;18.30;99.90
47090;DHT22;32840;52.516;13.294;2023-07-31T02:03:22;18.20;99.90
47090;DHT22;32840;52.516;13.294;2023-07-31T02:06:06;17.90;99.90
47090;DHT22;32840;52.516;13.294;2023-07-31T02:08:52;17.90;99.90
47090;DHT22;32840;52.516;13.294;2023-07-31T02:11:36;18.00;99.90
47090;DHT22;32840;52.516;13.294;2023-07-31T02:14:21;18.10;99.90
47090;DHT22;32840;52.516;13.294;2023-07-31T02:17:06;18.10;99.90
47090;DHT22;32840;52.516;13.294;2023-07-31T02:19:51;18.10;99.90
47090;DHT22;32840;52.516;13.294;2023-07-31T02:22:36;18.10;99.90
47090;DHT22;32840;52.516;13.294;2023-07-31T02:25:21;18.00;99.90
47090;DHT22;32840;52.516;13.294;2023-07-31T02:28:06;17.90;99.90
47090;DHT22;32840;52.516;13.294;2023-07-31T02:30:51;17.70;99.90
47090;DHT22;32840;52.516;13.294;2023-07-31T02:33:37;17.70;99.90
47090;DHT22;32840;52.516;13.294;2023-07-31T02:36:22;17.70;99.90
47090;DHT22;32840;52.516;13.294;2023-07-31T02:39:07;17.80;99.90
47090;DHT22;32840;52.516;13.294;2023-07-31T02:41:52;17.80;99.90
47090;DHT22;32840;52.516;13.294;2023-07-31T02:44:37;17.90;99.90
47090;DHT22;32840;52.516;13.294;2023-07-31T02:47:22;17.80;99.90
47090;DHT22;32840;52.516;13.294;2023-07-31T02:50:07;17.90;99.90
47090;DHT22;32840;52.516;13.294;2023-07-31T02:52:52;18.00;99.90
47090;DHT22;32840;52.516;13.294;2023-07-31T02:55:37;18.10;99.90
47090;DHT22;32840;52.516;13.294;2023-07-31T02:58:22;18.20;99.90
47090;DHT22;32840;52.516;13.294;2023-07-31T03:01:07;18.20;99.90
47090;DHT22;32840;52.516;13.294;2023-07-31T03:03:51;18.20;99.90
47090;DHT22;32840;52.516;13.294;2023-07-31T03:06:36;18.10;99.90
47090;DHT22;32840;52.516;13.294;2023-07-31T03:09:21;18.00;99.90
47090;DHT22;32840;52.516;13.294;2023-07-31T03:12:07;18.00;99.90
47090;DHT22;32840;52.516;13.294;2023-07-31T03:14:51;17.90;99.90
47090;DHT22;32840;52.516;13.294;2023-07-31T03:17:36;17.90;99.90
47090;DHT22;32840;52.516;13.294;2023-07-31T03:20:21;18.00;99.90
47090;DHT22;32840;52.516;13.294;2023-07-31T03:23:06;17.80;99.90
47090;DHT22;32840;52.516;13.294;2023-07-31T03:26:02;17.80;99.90
47090;DHT22;32840;52.516;13.294;2023-07-31T03:28:50;17.80;99.90
47090;DHT22;32840;52.516;13.294;2023-07-31T03:31:34;17.70;99.90
47090;DHT22;32840;52.516;13.294;2023-07-31T03:34:20;17.70;99.90
47090;DHT22;32840;52.516;13.294;2023-07-31T03:37:05;17.60;99.90
47090;DHT22;32840;52.516;13.294;2023-07-31T03:39:50;17.60;99.90
47090;DHT22;32840;52.516;13.294;2023-07-31T03:42:34;17.60;99.90
47090;DHT22;32840;52.516;13.294;2023-07-31T03:45:19;17.60;99.90
47090;DHT22;32840;52.516;13.294;2023-07-31T03:48:05;17.60;99.90
47090;DHT22;32840;52.516;13.294;2023-07-31T03:50:49;17.60;99.90
47090;DHT22;32840;52.516;13.294;2023-07-31T03:53:34;17.60;99.90
47090;DHT22;32840;52.516;13.294;2023-07-31T03:56:19;17.60;99.90
47090;DHT22;32840;52.516;13.294;2023-07-31T03:59:04;17.60;99.90
47090;DHT22;32840;52.516;13.294;2023-07-31T04:01:49;17.70;99.90
47090;DHT22;32840;52.516;13.294;2023-07-31T04:04:34;17.70;99.90
47090;DHT22;32840;52.516;13.294;2023-07-31T04:07:19;17.80;99.90
47090;DHT22;32840;52.516;13.294;2023-07-31T04:10:04;17.70;99.90
47090;DHT22;32840;52.516;13.294;2023-07-31T04:12:49;17.70;99.90
47090;DHT22;32840;52.516;13.294;2023-07-31T04:15:34;17.70;99.90
47090;DHT22;32840;52.516;13.294;2023-07-31T04:18:19;17.70;99.90
47090;DHT22;32840;52.516;13.294;2023-07-31T04:21:04;17.70;99.90
47090;DHT22;32840;52.516;13.294;2023-07-31T04:23:49;17.70;99.90
47090;DHT22;32840;52.516;13.294;2023-07-31T04:26:34;17.70;99.90
47090;DHT22;32840;52.516;13.294;2023-07-31T04:29:19;17.70;99.90
47090;DHT22;32840;52.516;13.294;2023-07-31T04:32:05;17.70;99.90
47090;DHT22;32840;52.516;13.294;2023-07-31T04:34:49;17.70;99.90
47090;DHT22;32840;52.516;13.294;2023-07-31T04:37:34;17.70;99.90
47090;DHT22;32840;52.516;13.294;2023-07-31T04:40:20;17.70;99.90
47090;DHT22;32840;52.516;13.294;2023-07-31T04:43:05;17.70;99.90
47090;DHT22;32840;52.516;13.294;2023-07-31T04:45:50;17.60;99.90
47090;DHT22;32840;52.516;13.294;2023-07-31T04:48:35;17.60;99.90
47090;DHT22;32840;52.516;13.294;2023-07-31T04:51:20;17.70;99.90
47090;DHT22;32840;52.516;13.294;2023-07-31T04:54:05;17.70;99.90
47090;DHT22;32840;52.516;13.294;2023-07-31T04:56:50;17.70;99.90
47090;DHT22;32840;52.516;13.294;2023-07-31T04:59:36;17.80;99.90
47090;DHT22;32840;52.516;13.294;2023-07-31T05:02:21;17.90;99.90
47090;DHT22;32840;52.516;13.294;2023-07-31T05:05:06;17.90;99.90
47090;DHT22;32840;52.516;13.294;2023-07-31T05:07:51;17.80;99.90
47090;DHT22;32840;52.516;13.294;2023-07-31T05:10:36;17.80;99.90
47090;DHT22;32840;52.516;13.294;2023-07-31T05:13:21;17.80;99.90
47090;DHT22;32840;52.516;13.294;2023-07-31T05:16:06;17.90;99.90
47090;DHT22;32840;52.516;13.294;2023-07-31T05:18:51;18.00;99.90
47090;DHT22;32840;52.516;13.294;2023-07-31T05:21:36;18.00;99.90
47090;DHT22;32840;52.516;13.294;2023-07-31T05:24:21;18.00;99.90
47090;DHT22;32840;52.516;13.294;2023-07-31T05:27:06;18.10;99.90
47090;DHT22;32840;52.516;13.294;2023-07-31T05:29:51;18.10;99.90
47090;DHT22;32840;52.516;13.294;2023-07-31T05:32:35;18.20;99.90
47090;DHT22;32840;52.516;13.294;2023-07-31T05:35:20;18.20;99.90
47090;DHT22;32840;52.516;13.294;2023-07-31T05:38:05;18.20;99.90
47090;DHT22;32840;52.516;13.294;2023-07-31T05:40:50;18.20;99.90
47090;DHT22;32840;52.516;13.294;2023-07-31T05:43:35;18.30;99.90
47090;DHT22;32840;52.516;13.294;2023-07-31T05:46:20;18.30;99.90
47090;DHT22;32840;52.516;13.294;2023-07-31T05:49:05;18.20;99.90
47090;DHT22;32840;52.516;13.294;2023-07-31T05:51:50;18.20;99.90
47090;DHT22;32840;52.516;13.294;2023-07-31T05:54:35;18.20;99.90
47090;DHT22;32840;52.516;13.294;2023-07-31T05:57:20;18.20;99.90
47090;DHT22;32840;52.516;13.294;2023-07-31T06:00:05;18.10;99.90
47090;DHT22;32840;52.516;13.294;2023-07-31T06:02:51;18.10;99.90
47090;DHT22;32840;52.516;13.294;2023-07-31T06:05:36;18.10;99.90
47090;DHT22;32840;52.516;13.294;2023-07-31T06:08:21;18.30;99.90
47090;DHT22;32840;52.516;13.294;2023-07-31T06:11:06;18.20;99.90
47090;DHT22;32840;52.516;13.294;2023-07-31T06:13:52;18.30;99.90
47090;DHT22;32840;52.516;13.294;2023-07-31T06:16:37;18.30;99.90
47090;DHT22;32840;52.516;13.294;2023-07-31T06:19:22;18.40;99.90
47090;DHT22;32840;52.516;13.294;2023-07-31T06:22:07;18.40;99.90
47090;DHT22;32840;52.516;13.294;2023-07-31T06:24:52;18.30;99.90
47090;DHT22;32840;52.516;13.294;2023-07-31T06:27:37;18.40;99.90
47090;DHT22;32840;52.516;13.294;2023-07-31T06:30:22;18.50;99.90
47090;DHT22;32840;52.516;13.294;2023-07-31T06:33:07;18.50;99.90
47090;DHT22;32840;52.516;13.294;2023-07-31T06:35:52;18.60;99.90
47090;DHT22;32840;52.516;13.294;2023-07-31T06:38:37;18.70;99.90
47090;DHT22;32840;52.516;13.294;2023-07-31T06:41:22;18.80;99.90
47090;DHT22;32840;52.516;13.294;2023-07-31T06:44:07;18.80;99.90
47090;DHT22;32840;52.516;13.294;2023-07-31T06:46:52;18.90;99.90
47090;DHT22;32840;52.516;13.294;2023-07-31T06:49:37;18.90;99.90
47090;DHT22;32840;52.516;13.294;2023-07-31T06:52:22;18.90;99.90
47090;DHT22;32840;52.516;13.294;2023-07-31T06:55:26;18.90;99.90
47090;DHT22;32840;52.516;13.294;2023-07-31T06:58:11;18.90;99.90
47090;DHT22;32840;52.516;13.294;2023-07-31T07:00:56;19.10;99.90
47090;DHT22;32840;52.516;13.294;2023-07-31T07:03:41;19.20;99.90
47090;DHT22;32840;52.516;13.294;2023-07-31T07:06:26;19.20;99.90
47090;DHT22;32840;52.516;13.294;2023-07-31T07:09:10;19.20;99.90
47090;DHT22;32840;52.516;13.294;2023-07-31T07:11:55;19.10;99.90
47090;DHT22;32840;52.516;13.294;2023-07-31T07:14:40;19.00;99.90
47090;DHT22;32840;52.516;13.294;2023-07-31T07:17:27;19.00;99.90
47090;DHT22;32840;52.516;13.294;2023-07-31T07:20:12;19.00;99.90
47090;DHT22;32840;52.516;13.294;2023-07-31T07:22:57;19.00;99.90
47090;DHT22;32840;52.516;13.294;2023-07-31T07:25:43;18.80;99.90
47090;DHT22;32840;52.516;13.294;2023-07-31T07:28:28;18.80;99.90
47090;DHT22;32840;52.516;13.294;2023-07-31T07:31:13;18.80;99.90
47090;DHT22;32840;52.516;13.294;2023-07-31T07:33:58;18.70;99.90
47090;DHT22;32840;52.516;13.294;2023-07-31T07:36:43;18.60;99.90
47090;DHT22;32840;52.516;13.294;2023-07-31T07:39:28;18.70;99.90
47090;DHT22;32840;52.516;13.294;2023-07-31T07:42:13;18.80;99.90
47090;DHT22;32840;52.516;13.294;2023-07-31T07:44:57;18.90;99.90
47090;DHT22;32840;52.516;13.294;2023-07-31T07:47:42;18.90;99.90
47090;DHT22;32840;52.516;13.294;2023-07-31T07:50:27;18.90;99.90
47090;DHT22;32840;52.516;13.294;2023-07-31T07:53:12;18.90;99.90
47090;DHT22;32840;52.516;13.294;2023-07-31T07:55:57;18.80;99.90
47090;DHT22;32840;52.516;13.294;2023-07-31T07:58:42;18.80;99.90
47090;DHT22;32840;52.516;13.294;2023-07-31T08:01:27;18.80;99.90
47090;DHT22;32840;52.516;13.294;2023-07-31T08:04:14;18.90;99.90
47090;DHT22;32840;52.516;13.294;2023-07-31T08:07:01;18.80;99.90
47090;DHT22;32840;52.516;13.294;2023-07-31T08:09:46;18.90;99.90
47090;DHT22;32840;52.516;13.294;2023-07-31T08:12:31;19.00;99.90
47090;DHT22;32840;52.516;13.294;2023-07-31T08:15:16;18.90;99.90
47090;DHT22;32840;52.516;13.294;2023-07-31T08:18:01;19.00;99.90
47090;DHT22;32840;52.516;13.294;2023-07-31T08:20:46;19.20;99.90
47090;DHT22;32840;52.516;13.294;2023-07-31T08:23:31;19.20;99.90
47090;DHT22;32840;52.516;13.294;2023-07-31T08:26:17;19.20;99.90
47090;DHT22;32840;52.516;13.294;2023-07-31T08:29:03;19.10;99.90
47090;DHT22;32840;52.516;13.294;2023-07-31T08:31:47;19.20;99.90
47090;DHT22;32840;52.516;13.294;2023-07-31T08:34:32;19.10;99.90
47090;DHT22;32840;52.516;13.294;2023-07-31T08:37:17;19.30;99.90
47090;DHT22;32840;52.516;13.294;2023-07-31T08:40:03;19.30;99.90
47090;DHT22;32840;52.516;13.294;2023-07-31T08:42:49;19.30;99.90
47090;DHT22;32840;52.516;13.294;2023-07-31T08:45:34;19.30;99.90
47090;DHT22;32840;52.516;13.294;2023-07-31T08:48:21;19.30;99.90
47090;DHT22;32840;52.516;13.294;2023-07-31T08:51:06;19.30;99.90
47090;DHT22;32840;52.516;13.294;2023-07-31T08:53:53;19.40;99.90
47090;DHT22;32840;52.516;13.294;2023-07-31T08:56:39;19.40;99.90
47090;DHT22;32840;52.516;13.294;2023-07-31T08:59:26;19.50;99.90
47090;DHT22;32840;52.516;13.294;2023-07-31T09:02:14;19.60;99.90
47090;DHT22;32840;52.516;13.294;2023-07-31T09:04:59;19.70;99.90
47090;DHT22;32840;52.516;13.294;2023-07-31T09:07:47;19.80;99.90
47090;DHT22;32840;52.516;13.294;2023-07-31T09:10:32;19.80;99.90
47090;DHT22;32840;52.516;13.294;2023-07-31T09:13:17;19.90;99.90
47090;DHT22;32840;52.516;13.294;2023-07-31T09:16:02;19.90;99.90
47090;DHT22;32840;52.516;13.294;2023-07-31T09:18:54;19.70;99.90
47090;DHT22;32840;52.516;13.294;2023-07-31T09:21:50;19.60;99.90
47090;DHT22;32840;52.516;13.294;2023-07-31T09:24:35;19.60;99.90
47090;DHT22;32840;52.516;13.294;2023-07-31T09:27:20;19.60;99.90
47090;DHT22;32840;52.516;13.294;2023-07-31T09:30:05;19.50;99.90
47090;DHT22;32840;52.516;13.294;2023-07-31T09:32:52;19.40;99.90
47090;DHT22;32840;52.516;13.294;2023-07-31T09:35:44;19.20;99.90
47090;DHT22;32840;52.516;13.294;2023-07-31T09:38:30;19.30;99.90
47090;DHT22;32840;52.516;13.294;2023-07-31T09:41:15;19.30;99.90
47090;DHT22;32840;52.516;13.294;2023-07-31T09:44:00;19.40;99.90
47090;DHT22;32840;52.516;13.294;2023-07-31T09:46:45;19.50;99.90
47090;DHT22;32840;52.516;13.294;2023-07-31T09:49:30;19.50;99.90
47090;DHT22;32840;52.516;13.294;2023-07-31T09:52:15;19.60;99.90
47090;DHT22;32840;52.516;13.294;2023-07-31T09:55:00;19.60;99.90
47090;DHT22;32840;52.516;13.294;2023-07-31T09:57:49;19.50;99.90
47090;DHT22;32840;52.516;13.294;2023-07-31T10:00:34;19.60;99.90
47090;DHT22;32840;52.516;13.294;2023-07-31T10:03:20;19.50;99.90
47090;DHT22;32840;52.516;13.294;2023-07-31T10:06:06;19.60;99.90
47090;DHT22;32840;52.516;13.294;2023-07-31T10:08:51;19.80;99.90
47090;DHT22;32840;52.516;13.294;2023-07-31T10:11:47;19.90;99.90
47090;DHT22;32840;52.516;13.294;2023-07-31T10:14:36;20.00;99.90
47090;DHT22;32840;52.516;13.294;2023-07-31T10:17:24;20.00;99.90
47090;DHT22;32840;52.516;13.294;2023-07-31T10:20:09;19.90;99.90
47090;DHT22;32840;52.516;13.294;2023-07-31T10:22:55;19.80;99.90
47090;DHT22;32840;52.516;13.294;2023-07-31T10:25:41;19.80;99.90
47090;DHT22;32840;52.516;13.294;2023-07-31T10:28:26;19.90;99.90
47090;DHT22;32840;52.516;13.294;2023-07-31T10:31:12;20.10;99.90
47090;DHT22;32840;52.516;13.294;2023-07-31T10:33:58;20.20;99.90
47090;DHT22;32840;52.516;13.294;2023-07-31T10:36:47;20.30;99.90
47090;DHT22;32840;52.516;13.294;2023-07-31T10:39:37;20.40;99.90
47090;DHT22;32840;52.516;13.294;2023-07-31T10:42:31;20.50;99.90
47090;DHT22;32840;52.516;13.294;2023-07-31T10:45:36;20.70;99.90
47090;DHT22;32840;52.516;13.294;2023-07-31T10:48:22;20.90;99.90
47090;DHT22;32840;52.516;13.294;2023-07-31T10:51:10;21.30;99.90
47090;DHT22;32840;52.516;13.294;2023-07-31T10:54:10;21.40;99.90
47090;DHT22;32840;52.516;13.294;2023-07-31T10:56:56;21.40;99.90
47090;DHT22;32840;52.516;13.294;2023-07-31T10:59:41;21.50;99.90
47090;DHT22;32840;52.516;13.294;2023-07-31T11:02:26;21.60;99.90
47090;DHT22;32840;52.516;13.294;2023-07-31T11:05:14;21.70;99.90
47090;DHT22;32840;52.516;13.294;2023-07-31T11:07:59;21.70;99.90
47090;DHT22;32840;52.516;13.294;2023-07-31T11:10:44;21.80;99.90
47090;DHT22;32840;52.516;13.294;2023-07-31T11:13:29;21.70;99.90
47090;DHT22;32840;52.516;13.294;2023-07-31T11:16:15;21.70;99.90
47090;DHT22;32840;52.516;13.294;2023-07-31T11:19:00;21.70;99.90
47090;DHT22;32840;52.516;13.294;2023-07-31T11:21:45;21.70;99.90
47090;DHT22;32840;52.516;13.294;2023-07-31T11:24:30;21.70;99.90
47090;DHT22;32840;52.516;13.294;2023-07-31T11:27:15;21.80;99.90
47090;DHT22;32840;52.516;13.294;2023-07-31T11:30:01;21.70;99.90
47090;DHT22;32840;52.516;13.294;2023-07-31T11:32:46;21.60;99.90
47090;DHT22;32840;52.516;13.294;2023-07-31T11:35:33;21.60;99.90
47090;DHT22;32840;52.516;13.294;2023-07-31T11:41:15;21.50;99.90
47090;DHT22;32840;52.516;13.294;2023-07-31T11:44:03;21.60;99.90
47090;DHT22;32840;52.516;13.294;2023-07-31T11:46:48;21.60;99.90
47090;DHT22;32840;52.516;13.294;2023-07-31T11:49:36;21.60;99.90
47090;DHT22;32840;52.516;13.294;2023-07-31T11:52:21;21.60;99.90
47090;DHT22;32840;52.516;13.294;2023-07-31T11:55:08;21.70;99.90
47090;DHT22;32840;52.516;13.294;2023-07-31T11:57:58;21.70;99.90
47090;DHT22;32840;52.516;13.294;2023-07-31T12:00:44;21.70;99.90
47090;DHT22;32840;52.516;13.294;2023-07-31T12:03:29;21.70;99.90
47090;DHT22;32840;52.516;13.294;2023-07-31T12:06:14;21.60;99.90
47090;DHT22;32840;52.516;13.294;2023-07-31T12:09:03;21.50;99.90
47090;DHT22;32840;52.516;13.294;2023-07-31T12:11:48;21.50;99.90
47090;DHT22;32840;52.516;13.294;2023-07-31T12:14:34;21.60;99.90
47090;DHT22;32840;52.516;13.294;2023-07-31T12:17:19;21.70;99.90
47090;DHT22;32840;52.516;13.294;2023-07-31T12:20:08;21.90;99.90
47090;DHT22;32840;52.516;13.294;2023-07-31T12:22:56;22.10;99.90
47090;DHT22;32840;52.516;13.294;2023-07-31T12:25:41;22.20;99.90
47090;DHT22;32840;52.516;13.294;2023-07-31T12:28:26;22.20;99.90
47090;DHT22;32840;52.516;13.294;2023-07-31T12:31:19;22.20;99.90
47090;DHT22;32840;52.516;13.294;2023-07-31T12:34:18;22.40;99.90
47090;DHT22;32840;52.516;13.294;2023-07-31T12:37:03;22.50;99.90
47090;DHT22;32840;52.516;13.294;2023-07-31T12:39:50;22.40;99.90
47090;DHT22;32840;52.516;13.294;2023-07-31T12:42:35;22.50;99.90
47090;DHT22;32840;52.516;13.294;2023-07-31T12:45:20;22.60;99.90
47090;DHT22;32840;52.516;13.294;2023-07-31T12:48:05;22.60;99.90
47090;DHT22;32840;52.516;13.294;2023-07-31T12:50:50;22.50;99.90
47090;DHT22;32840;52.516;13.294;2023-07-31T12:53:36;22.50;99.90
47090;DHT22;32840;52.516;13.294;2023-07-31T12:56:21;22.40;99.90
47090;DHT22;32840;52.516;13.294;2023-07-31T12:59:05;22.30;99.90
47090;DHT22;32840;52.516;13.294;2023-07-31T13:01:50;22.20;99.90
47090;DHT22;32840;52.516;13.294;2023-07-31T13:04:35;22.00;99.90
47090;DHT22;32840;52.516;13.294;2023-07-31T13:07:20;22.00;99.90
47090;DHT22;32840;52.516;13.294;2023-07-31T13:10:06;22.00;99.90
47090;DHT22;32840;52.516;13.294;2023-07-31T13:12:51;22.00;99.90
47090;DHT22;32840;52.516;13.294;2023-07-31T13:15:36;22.10;99.90
47090;DHT22;32840;52.516;13.294;2023-07-31T13:18:21;22.30;99.90
47090;DHT22;32840;52.516;13.294;2023-07-31T13:21:06;22.20;99.90
47090;DHT22;32840;52.516;13.294;2023-07-31T13:23:51;22.20;99.90
47090;DHT22;32840;52.516;13.294;2023-07-31T13:26:36;22.30;99.90
47090;DHT22;32840;52.516;13.294;2023-07-31T13:29:22;22.40;99.90
47090;DHT22;32840;52.516;13.294;2023-07-31T13:32:06;22.40;99.90
47090;DHT22;32840;52.516;13.294;2023-07-31T13:34:51;22.40;99.90
47090;DHT22;32840;52.516;13.294;2023-07-31T13:37:36;22.50;99.90
47090;DHT22;32840;52.516;13.294;2023-07-31T13:40:21;22.70;99.90
47090;DHT22;32840;52.516;13.294;2023-07-31T13:43:06;22.60;99.90
47090;DHT22;32840;52.516;13.294;2023-07-31T13:45:51;22.60;99.90
47090;DHT22;32840;52.516;13.294;2023-07-31T13:48:36;22.60;99.90
47090;DHT22;32840;52.516;13.294;2023-07-31T13:51:21;22.80;99.90
47090;DHT22;32840;52.516;13.294;2023-07-31T13:54:06;22.90;99.90
47090;DHT22;32840;52.516;13.294;2023-07-31T13:56:52;22.90;99.90
47090;DHT22;32840;52.516;13.294;2023-07-31T13:59:37;22.90;99.90
47090;DHT22;32840;52.516;13.294;2023-07-31T14:02:22;22.80;99.90
47090;DHT22;32840;52.516;13.294;2023-07-31T14:05:07;22.70;99.90
47090;DHT22;32840;52.516;13.294;2023-07-31T14:07:53;22.80;99.90
47090;DHT22;32840;52.516;13.294;2023-07-31T14:10:38;22.80;99.90
47090;DHT22;32840;52.516;13.294;2023-07-31T14:13:23;22.70;99.90
47090;DHT22;32840;52.516;13.294;2023-07-31T14:16:08;22.70;99.90
47090;DHT22;32840;52.516;13.294;2023-07-31T14:18:53;22.70;99.90
47090;DHT22;32840;52.516;13.294;2023-07-31T14:21:38;22.70;99.90
47090;DHT22;32840;52.516;13.294;2023-07-31T14:24:23;22.60;99.90
47090;DHT22;32840;52.516;13.294;2023-07-31T14:27:08;22.70;99.90
47090;DHT22;32840;52.516;13.294;2023-07-31T14:29:53;22.70;99.90
47090;DHT22;32840;52.516;13.294;2023-07-31T14:32:38;22.70;99.90
47090;DHT22;32840;52.516;13.294;2023-07-31T14:35:23;22.70;99.90
47090;DHT22;32840;52.516;13.294;2023-07-31T14:38:08;22.80;99.90
47090;DHT22;32840;52.516;13.294;2023-07-31T14:40:53;22.80;99.90
47090;DHT22;32840;52.516;13.294;2023-07-31T14:43:38;22.60;99.90
47090;DHT22;32840;52.516;13.294;2023-07-31T14:46:23;22.60;99.90
47090;DHT22;32840;52.516;13.294;2023-07-31T14:49:08;22.60;99.90
47090;DHT22;32840;52.516;13.294;2023-07-31T14:51:53;22.50;99.90
47090;DHT22;32840;52.516;13.294;2023-07-31T14:54:37;22.40;99.90
47090;DHT22;32840;52.516;13.294;2023-07-31T14:57:23;22.40;99.90
47090;DHT22;32840;52.516;13.294;2023-07-31T15:00:08;22.30;99.90
47090;DHT22;32840;52.516;13.294;2023-07-31T15:02:53;22.30;99.90
47090;DHT22;32840;52.516;13.294;2023-07-31T15:05:38;22.20;99.90
47090;DHT22;32840;52.516;13.294;2023-07-31T15:08:23;22.20;99.90
47090;DHT22;32840;52.516;13.294;2023-07-31T15:11:09;22.10;99.90
47090;DHT22;32840;52.516;13.294;2023-07-31T15:13:54;22.10;99.90
47090;DHT22;32840;52.516;13.294;2023-07-31T15:16:40;22.10;99.90
47090;DHT22;32840;52.516;13.294;2023-07-31T15:19:24;22.20;99.90
47090;DHT22;32840;52.516;13.294;2023-07-31T15:22:09;22.30;99.90
47090;DHT22;32840;52.516;13.294;2023-07-31T15:24:54;22.40;99.90
47090;DHT22;32840;52.516;13.294;2023-07-31T15:27:39;22.50;99.90
47090;DHT22;32840;52.516;13.294;2023-07-31T15:30:24;22.40;99.90
47090;DHT22;32840;52.516;13.294;2023-07-31T15:33:09;22.30;99.90
47090;DHT22;32840;52.516;13.294;2023-07-31T15:35:54;22.20;99.90
47090;DHT22;32840;52.516;13.294;2023-07-31T15:38:40;22.20;99.90
47090;DHT22;32840;52.516;13.294;2023-07-31T15:41:25;22.20;99.90
47090;DHT22;32840;52.516;13.294;2023-07-31T15:44:10;22.10;99.90
47090;DHT22;32840;52.516;13.294;2023-07-31T15:46:55;22.20;99.90
47090;DHT22;32840;52.516;13.294;2023-07-31T15:49:40;22.10;99.90
47090;DHT22;32840;52.516;13.294;2023-07-31T15:52:25;22.10;99.90
47090;DHT22;32840;52.516;13.294;2023-07-31T15:55:10;22.00;99.90
47090;DHT22;32840;52.516;13.294;2023-07-31T15:57:55;22.00;99.90
47090;DHT22;32840;52.516;13.294;2023-07-31T16:00:40;22.00;99.90
47090;DHT22;32840;52.516;13.294;2023-07-31T16:03:25;22.00;99.90
47090;DHT22;32840;52.516;13.294;2023-07-31T16:06:11;21.90;99.90
47090;DHT22;32840;52.516;13.294;2023-07-31T16:08:55;22.00;99.90
47090;DHT22;32840;52.516;13.294;2023-07-31T16:11:40;21.90;99.90
47090;DHT22;32840;52.516;13.294;2023-07-31T16:14:26;22.00;99.90
47090;DHT22;32840;52.516;13.294;2023-07-31T16:17:11;21.90;99.90
47090;DHT22;32840;52.516;13.294;2023-07-31T16:19:58;21.90;99.90
47090;DHT22;32840;52.516;13.294;2023-07-31T16:22:43;21.90;99.90
47090;DHT22;32840;52.516;13.294;2023-07-31T16:25:28;21.80;99.90
47090;DHT22;32840;52.516;13.294;2023-07-31T16:28:13;21.80;99.90
47090;DHT22;32840;52.516;13.294;2023-07-31T16:30:58;21.80;99.90
47090;DHT22;32840;52.516;13.294;2023-07-31T16:33:43;21.80;99.90
47090;DHT22;32840;52.516;13.294;2023-07-31T16:36:27;21.80;99.90
47090;DHT22;32840;52.516;13.294;2023-07-31T16:39:12;21.80;99.90
47090;DHT22;32840;52.516;13.294;2023-07-31T16:41:57;21.70;99.90
47090;DHT22;32840;52.516;13.294;2023-07-31T16:44:42;21.80;99.90
47090;DHT22;32840;52.516;13.294;2023-07-31T16:47:28;21.80;99.90
47090;DHT22;32840;52.516;13.294;2023-07-31T16:50:12;21.80;99.90
47090;DHT22;32840;52.516;13.294;2023-07-31T16:52:57;21.80;99.90
47090;DHT22;32840;52.516;13.294;2023-07-31T16:55:42;21.80;99.90
47090;DHT22;32840;52.516;13.294;2023-07-31T16:58:27;21.80;99.90
47090;DHT22;32840;52.516;13.294;2023-07-31T17:01:12;21.90;99.90
47090;DHT22;32840;52.516;13.294;2023-07-31T17:03:57;21.80;99.90
47090;DHT22;32840;52.516;13.294;2023-07-31T17:06:44;21.80;99.90
47090;DHT22;32840;52.516;13.294;2023-07-31T17:09:29;21.90;99.90
47090;DHT22;32840;52.516;13.294;2023-07-31T17:12:14;21.90;99.90
47090;DHT22;32840;52.516;13.294;2023-07-31T17:14:59;21.80;99.90